Time;durP1;ratioP1;P1;durP2;ratioP2;P2;SDS_P1;SDS_P2;PMS_P1;PMS_P2;Temp;Humidity;BMP_temperature;BMP_pressure;BME280_temperature;BME280_humidity;BME280_pressure;Samples;Min_cycle;Max_cycle;Signal;HPM_P1;HPM_P2
2023/04/18 00:00:12;;;;;;;28.85;17.67;;;;;;;3.87;100.00;102904.44;5033719;28;20120;-69
2023/04/18 00:02:38;;;;;;;28.50;17.35;;;;;;;3.84;100.00;102891.34;5033430;28;20029;-69
2023/04/18 00:05:06;;;;;;;32.63;18.75;;;;;;;3.84;100.00;102900.13;5033587;28;20052;-70
2023/04/18 00:07:31;;;;;;;38.92;20.92;;;;;;;3.87;100.00;102904.44;5033928;28;20029;-69
2023/04/18 00:09:57;;;;;;;33.45;19.60;;;;;;;3.85;100.00;102903.59;5033301;28;20045;-70
2023/04/18 00:12:22;;;;;;;37.78;19.38;;;;;;;3.82;100.00;102903.69;5032826;28;20052;-69
2023/04/18 00:14:49;;;;;;;34.58;19.02;;;;;;;3.80;100.00;102898.47;5033832;28;20033;-70
2023/04/18 00:17:15;;;;;;;39.65;21.10;;;;;;;3.82;100.00;102904.56;5033454;28;20187;-70
2023/04/18 00:19:41;;;;;;;30.20;17.73;;;;;;;3.81;100.00;102899.34;5033464;28;20561;-69
2023/04/18 00:22:07;;;;;;;29.92;17.77;;;;;;;3.77;100.00;102900.34;5033321;28;20120;-70
2023/04/18 00:24:32;;;;;;;29.75;16.17;;;;;;;3.74;100.00;102898.66;5033433;28;20121;-70
2023/04/18 00:26:57;;;;;;;31.15;17.23;;;;;;;3.76;100.00;102894.19;5032737;28;20061;-69
2023/04/18 00:29:23;;;;;;;30.83;18.92;;;;;;;3.76;100.00;102898.59;5033175;28;20044;-70
2023/04/18 00:31:48;;;;;;;38.78;19.83;;;;;;;3.75;100.00;102892.50;5033228;28;20038;-69
2023/04/18 00:34:13;;;;;;;35.53;19.95;;;;;;;3.74;100.00;102895.16;5033329;28;20103;-69
2023/04/18 00:36:39;;;;;;;37.80;20.17;;;;;;;3.79;100.00;102890.63;5033460;28;20033;-69
2023/04/18 00:39:05;;;;;;;33.28;20.40;;;;;;;3.86;100.00;102884.25;5033078;28;20033;-70
2023/04/18 00:41:30;;;;;;;42.15;20.60;;;;;;;3.89;100.00;102892.06;5032788;28;20056;-69
2023/04/18 00:43:56;;;;;;;35.95;18.40;;;;;;;3.90;100.00;102888.53;5032610;28;20368;-69
2023/04/18 00:46:21;;;;;;;41.17;19.60;;;;;;;3.88;100.00;102891.22;5031904;28;20041;-69
2023/04/18 00:48:47;;;;;;;35.88;19.73;;;;;;;3.92;100.00;102873.53;5031986;28;20029;-69
2023/04/18 00:51:14;;;;;;;37.90;21.65;;;;;;;3.95;100.00;102877.88;5033104;28;20120;-69
2023/04/18 00:53:40;;;;;;;38.80;21.70;;;;;;;3.97;100.00;102879.56;5033245;28;20438;-69
2023/04/18 00:56:06;;;;;;;36.70;20.33;;;;;;;4.01;100.00;102881.16;5032661;28;20083;-69
2023/04/18 00:58:32;;;;;;;42.15;20.83;;;;;;;4.03;100.00;102875.84;5032701;28;20139;-69
2023/04/18 01:00:57;;;;;;;36.03;20.77;;;;;;;4.09;100.00;102878.31;5032474;28;20372;-69
2023/04/18 01:03:24;;;;;;;34.50;18.88;;;;;;;4.13;100.00;102882.56;5032493;28;20108;-68
2023/04/18 01:05:50;;;;;;;38.47;18.70;;;;;;;4.14;100.00;102884.28;5032748;28;20040;-69
2023/04/18 01:08:17;;;;;;;33.58;17.77;;;;;;;4.15;100.00;102878.13;5032521;28;20033;-71
2023/04/18 01:10:44;;;;;;;29.63;16.75;;;;;;;4.12;100.00;102875.59;5033179;28;20045;-69
2023/04/18 01:13:14;;;;;;;28.52;16.17;;;;;;;4.10;100.00;102879.16;5032607;28;20467;-69
2023/04/18 01:15:41;;;;;;;33.20;17.80;;;;;;;4.10;100.00;102871.25;5032666;28;20030;-69
2023/04/18 01:18:07;;;;;;;24.35;15.68;;;;;;;4.09;100.00;102875.69;5033018;28;20049;-69
2023/04/18 01:20:39;;;;;;;24.05;15.20;;;;;;;4.08;100.00;102881.00;5033907;28;20052;-69
2023/04/18 01:23:05;;;;;;;29.75;14.82;;;;;;;4.04;100.00;102872.31;5036272;28;20033;-69
2023/04/18 01:25:31;;;;;;;23.00;14.65;;;;;;;4.02;100.00;102866.25;5037232;28;20076;-68
2023/04/18 01:27:57;;;;;;;21.35;14.23;;;;;;;3.99;100.00;102871.59;5036548;28;20052;-69
2023/04/18 01:30:23;;;;;;;22.65;13.30;;;;;;;3.98;100.00;102867.22;5035173;28;20044;-70
2023/04/18 01:32:48;;;;;;;21.35;12.80;;;;;;;3.92;100.00;102865.63;5036280;28;20033;-69
2023/04/18 01:35:13;;;;;;;19.25;12.63;;;;;;;3.87;100.00;102872.84;5036985;28;20522;-70
2023/04/18 01:37:39;;;;;;;20.40;12.25;;;;;;;3.79;100.00;102872.19;5036209;28;20161;-68
2023/04/18 01:40:05;;;;;;;17.42;12.20;;;;;;;3.69;100.00;102869.81;5036276;28;20103;-69
2023/04/18 01:42:30;;;;;;;21.38;13.13;;;;;;;3.65;100.00;102859.44;5018488;28;20117;-69
2023/04/18 01:44:55;;;;;;;23.73;13.90;;;;;;;3.69;100.00;102858.44;5035052;28;20116;-69
2023/04/18 01:47:21;;;;;;;21.40;14.02;;;;;;;3.74;100.00;102867.06;5036111;28;20037;-69
2023/04/18 01:49:47;;;;;;;18.85;12.43;;;;;;;3.74;100.00;102867.06;5036121;28;20029;-69
2023/04/18 01:52:13;;;;;;;17.25;11.95;;;;;;;3.70;100.00;102865.41;5036174;28;20091;-68
2023/04/18 01:54:39;;;;;;;19.15;12.05;;;;;;;3.64;100.00;102862.97;5035694;28;20033;-69
2023/04/18 01:57:04;;;;;;;18.42;11.40;;;;;;;3.59;100.00;102863.09;5036159;28;20036;-68
2023/04/18 01:59:30;;;;;;;16.63;10.90;;;;;;;3.57;100.00;102866.66;5035524;28;20029;-68
2023/04/18 02:01:55;;;;;;;17.73;11.43;;;;;;;3.53;100.00;102868.53;5035468;28;20026;-69
2023/04/18 02:04:20;;;;;;;15.80;10.70;;;;;;;3.48;100.00;102860.78;5035666;28;20037;-69
2023/04/18 02:06:46;;;;;;;15.48;10.30;;;;;;;3.44;100.00;102867.03;5035696;28;20056;-68
2023/04/18 02:09:11;;;;;;;16.77;9.57;;;;;;;3.41;100.00;102855.75;5035393;28;20037;-69
2023/04/18 02:11:36;;;;;;;14.63;9.35;;;;;;;3.37;100.00;102851.47;5035652;28;20104;-69
2023/04/18 02:14:02;;;;;;;12.88;9.30;;;;;;;3.33;100.00;102850.69;5035547;28;20040;-68
2023/04/18 02:16:27;;;;;;;13.15;8.63;;;;;;;3.32;100.00;102857.69;5035298;28;20033;-69
2023/04/18 02:18:53;;;;;;;12.18;8.88;;;;;;;3.30;100.00;102850.75;5035478;28;20041;-69
2023/04/18 02:21:18;;;;;;;11.43;8.07;;;;;;;3.29;100.00;102851.69;5033906;28;20049;-69
2023/04/18 02:23:44;;;;;;;10.93;8.15;;;;;;;3.22;100.00;102855.38;5035596;28;20025;-69
2023/04/18 02:26:09;;;;;;;13.27;8.48;;;;;;;3.21;100.00;102844.00;5035261;28;20434;-69
2023/04/18 02:28:37;;;;;;;11.02;8.00;;;;;;;3.21;100.00;102849.25;5035156;28;20029;-69
2023/04/18 02:31:03;;;;;;;11.80;8.57;;;;;;;3.24;100.00;102848.28;5035141;28;20041;-68
2023/04/18 02:33:28;;;;;;;11.38;8.40;;;;;;;3.21;100.00;102846.63;5035257;28;20041;-69
2023/04/18 02:35:54;;;;;;;13.32;8.27;;;;;;;3.20;100.00;102844.03;5034915;28;20029;-69
2023/04/18 02:38:19;;;;;;;12.52;8.85;;;;;;;3.22;100.00;102847.47;5034772;28;20052;-69
2023/04/18 02:40:44;;;;;;;13.07;8.75;;;;;;;3.21;100.00;102845.75;5034931;28;20479;-69
2023/04/18 02:43:11;;;;;;;14.45;9.13;;;;;;;3.20;100.00;102849.31;5035447;28;20042;-69
2023/04/18 02:45:36;;;;;;;16.38;9.63;;;;;;;3.18;100.00;102854.59;5035187;28;20083;-69
2023/04/18 02:48:02;;;;;;;14.07;8.90;;;;;;;3.17;100.00;102848.47;5035357;28;20084;-69
2023/04/18 02:50:28;;;;;;;15.75;8.82;;;;;;;3.12;100.00;102850.38;5035333;28;20029;-69
2023/04/18 02:52:53;;;;;;;18.25;9.50;;;;;;;3.13;100.00;102853.84;5035060;28;20041;-70
2023/04/18 02:55:20;;;;;;;14.35;8.73;;;;;;;3.09;100.00;102853.09;5035100;28;20372;-69
2023/04/18 02:57:46;;;;;;;16.90;9.90;;;;;;;3.06;100.00;102852.28;5034938;28;20029;-69
2023/04/18 03:00:12;;;;;;;16.02;9.45;;;;;;;3.05;100.00;102847.94;5035469;28;20037;-69
2023/04/18 03:02:38;;;;;;;15.32;8.55;;;;;;;3.01;100.00;102852.41;5035059;28;20095;-69
2023/04/18 03:05:04;;;;;;;14.52;9.15;;;;;;;2.99;100.00;102848.97;5035334;28;20463;-69
2023/04/18 03:07:30;;;;;;;17.92;9.25;;;;;;;2.99;100.00;102847.19;5034944;28;20496;-68
2023/04/18 03:09:55;;;;;;;15.32;9.23;;;;;;;2.99;100.00;102855.09;5034724;28;20026;-69
2023/04/18 03:12:20;;;;;;;18.33;9.85;;;;;;;2.98;100.00;102853.34;5034691;28;20395;-69
2023/04/18 03:14:46;;;;;;;13.32;9.10;;;;;;;2.96;100.00;102852.53;5034413;28;20029;-69
2023/04/18 03:17:11;;;;;;;15.88;9.30;;;;;;;2.96;100.00;102857.78;5033305;28;20498;-69
2023/04/18 03:19:36;;;;;;;13.70;8.95;;;;;;;2.93;100.00;102851.75;5034659;28;20255;-69
2023/04/18 03:22:02;;;;;;;13.65;8.82;;;;;;;2.94;100.00;102856.09;5033342;28;20120;-70
2023/04/18 03:24:27;;;;;;;16.65;9.55;;;;;;;2.94;100.00;102859.63;5034195;28;20025;-70
2023/04/18 03:26:53;;;;;;;17.35;8.93;;;;;;;2.93;100.00;102863.13;5033916;28;20033;-70
2023/04/18 03:29:18;;;;;;;14.95;8.98;;;;;;;2.95;100.00;102850.81;5034551;28;20079;-69
2023/04/18 03:31:44;;;;;;;14.82;9.20;;;;;;;3.01;100.00;102860.31;5034711;28;20490;-70
2023/04/18 03:34:09;;;;;;;13.07;9.48;;;;;;;3.10;100.00;102862.69;5034283;28;20034;-70
2023/04/18 03:36:35;;;;;;;12.80;8.77;;;;;;;3.21;100.00;102864.16;5034100;28;20025;-69
2023/04/18 03:39:00;;;;;;;19.02;9.75;;;;;;;3.35;100.00;102859.41;5033738;28;20116;-69
2023/04/18 03:41:26;;;;;;;13.98;9.60;;;;;;;3.51;100.00;102854.56;5034322;28;20053;-69
2023/04/18 03:43:52;;;;;;;15.90;9.30;;;;;;;3.67;100.00;102855.84;5033174;28;20419;-70
2023/04/18 03:46:17;;;;;;;16.58;9.77;;;;;;;3.78;100.00;102857.31;5034158;28;20076;-69
2023/04/18 03:48:43;;;;;;;13.98;9.25;;;;;;;3.87;100.00;102862.28;5033945;28;20041;-69
2023/04/18 03:51:08;;;;;;;18.33;9.63;;;;;;;3.97;100.00;102853.22;5033785;28;20044;-69
2023/04/18 03:53:34;;;;;;;16.88;9.82;;;;;;;4.05;100.00;102856.47;5032554;28;20080;-69
2023/04/18 03:55:59;;;;;;;16.45;9.82;;;;;;;4.11;100.00;102852.78;5033778;28;20045;-69
2023/04/18 03:58:25;;;;;;;14.23;9.63;;;;;;;4.14;100.00;102854.47;5032091;28;20045;-69
2023/04/18 04:00:50;;;;;;;16.58;9.43;;;;;;;4.09;100.00;102854.59;5033664;28;20030;-69
2023/04/18 04:03:17;;;;;;;18.70;9.77;;;;;;;3.99;100.00;102856.66;5032468;28;20037;-70
2023/04/18 04:05:42;;;;;;;18.92;10.05;;;;;;;3.89;100.00;102856.06;5034183;28;20033;-69
2023/04/18 04:08:08;;;;;;;17.65;10.00;;;;;;;3.82;100.00;102862.44;5033512;28;20036;-69
2023/04/18 04:10:33;;;;;;;13.63;9.25;;;;;;;3.75;100.00;102849.47;5033557;28;20053;-70
2023/04/18 04:12:59;;;;;;;19.75;9.95;;;;;;;3.69;100.00;102856.66;5033680;28;20035;-70
2023/04/18 04:15:24;;;;;;;16.20;9.95;;;;;;;3.64;100.00;102861.22;5033701;28;20117;-70
2023/04/18 04:17:50;;;;;;;18.35;10.13;;;;;;;3.56;100.00;102852.66;5033833;28;20033;-69
2023/04/18 04:20:21;;;;;;;15.27;9.40;;;;;;;3.47;100.00;102859.03;5033339;28;20123;-70
2023/04/18 04:22:47;;;;;;;17.63;10.02;;;;;;;3.43;100.00;102860.03;5033236;28;20119;-70
2023/04/18 04:25:12;;;;;;;12.98;9.20;;;;;;;3.46;100.00;102873.13;5033321;28;20065;-70
2023/04/18 04:27:38;;;;;;;16.13;9.40;;;;;;;3.51;100.00;102860.69;5033154;28;20034;-70
2023/04/18 04:30:04;;;;;;;16.00;9.82;;;;;;;3.60;100.00;102862.19;5033254;28;20463;-69
2023/04/18 04:32:29;;;;;;;12.32;9.18;;;;;;;3.66;100.00;102864.66;5033274;28;20044;-69
2023/04/18 04:34:55;;;;;;;16.40;10.32;;;;;;;3.71;100.00;102856.63;5033304;28;20479;-69
2023/04/18 04:37:20;;;;;;;14.93;9.68;;;;;;;3.77;100.00;102864.31;5032023;28;20039;-70
2023/04/18 04:39:46;;;;;;;14.57;9.90;;;;;;;3.82;100.00;102865.06;5032929;28;20515;-70
2023/04/18 04:42:12;;;;;;;16.85;9.63;;;;;;;3.88;100.00;102858.72;5034051;28;20049;-69
2023/04/18 04:44:40;;;;;;;12.88;9.82;;;;;;;3.93;100.00;102854.22;5033047;28;20049;-70
2023/04/18 04:47:06;;;;;;;16.23;10.45;;;;;;;3.97;100.00;102862.88;5033980;28;20040;-68
2023/04/18 04:49:31;;;;;;;14.48;10.18;;;;;;;4.03;100.00;102860.03;5032943;28;20457;-69
2023/04/18 04:51:56;;;;;;;14.60;10.65;;;;;;;4.08;100.00;102875.72;5032777;28;20516;-69
2023/04/18 04:54:22;;;;;;;14.63;9.82;;;;;;;4.14;100.00;102870.28;5032431;28;20379;-69
2023/04/18 04:56:47;;;;;;;13.15;9.68;;;;;;;4.21;100.00;102877.94;5031719;28;20037;-70
2023/04/18 04:59:12;;;;;;;15.55;10.13;;;;;;;4.24;100.00;102875.19;5033120;28;20033;-70
2023/04/18 05:01:38;;;;;;;19.63;10.57;;;;;;;4.22;100.00;102869.13;5032861;28;20068;-71
2023/04/18 05:04:04;;;;;;;16.90;10.38;;;;;;;4.13;100.00;102874.66;5032851;28;20196;-70
2023/04/18 05:06:30;;;;;;;16.50;10.50;;;;;;;4.05;100.00;102880.16;5034689;28;20034;-69
2023/04/18 05:08:56;;;;;;;23.60;13.80;;;;;;;3.97;100.00;102879.56;5031085;28;20030;-69
2023/04/18 05:11:22;;;;;;;18.27;11.13;;;;;;;3.98;100.00;102872.50;5033298;28;20041;-69
2023/04/18 05:13:47;;;;;;;14.75;10.40;;;;;;;3.99;100.00;102876.88;5032950;28;20037;-69
2023/04/18 05:16:13;;;;;;;13.95;10.25;;;;;;;4.03;100.00;102883.75;5032971;28;20115;-70
2023/04/18 05:18:40;;;;;;;16.50;10.60;;;;;;;4.10;100.00;102881.81;5032423;28;20041;-69
2023/04/18 05:21:05;;;;;;;15.10;10.45;;;;;;;4.20;100.00;102883.25;5032386;28;20380;-69
2023/04/18 05:23:32;;;;;;;17.95;10.63;;;;;;;4.33;100.00;102881.06;5032735;28;20172;-69
2023/04/18 05:25:57;;;;;;;19.10;11.15;;;;;;;4.45;100.00;102883.34;5033409;28;20111;-69
2023/04/18 05:28:25;;;;;;;13.32;10.63;;;;;;;4.55;100.00;102882.13;5033063;28;20080;-69
2023/04/18 05:30:50;;;;;;;22.52;11.77;;;;;;;4.66;100.00;102883.53;5032755;28;20061;-71
2023/04/18 05:33:16;;;;;;;20.17;10.60;;;;;;;4.73;100.00;102888.56;5032554;28;20088;-69
2023/04/18 05:35:41;;;;;;;20.08;10.90;;;;;;;4.82;100.00;102890.06;5031347;28;20038;-69
2023/04/18 05:38:07;;;;;;;21.23;12.45;;;;;;;4.87;100.00;102890.75;5032769;28;20056;-70
2023/04/18 05:40:32;;;;;;;25.75;11.52;;;;;;;4.93;100.00;102889.69;5031996;28;20053;-70
2023/04/18 05:42:57;;;;;;;20.67;11.07;;;;;;;4.99;100.00;102893.91;5032787;28;20425;-69
2023/04/18 05:45:23;;;;;;;18.75;11.85;;;;;;;5.04;100.00;102895.44;5032491;28;20031;-69
2023/04/18 05:47:48;;;;;;;16.30;11.10;;;;;;;5.11;100.00;102899.59;5032649;28;20030;-69
2023/04/18 05:50:14;;;;;;;16.38;11.57;;;;;;;5.18;100.00;102894.97;5032438;28;20037;-69
2023/04/18 05:52:39;;;;;;;25.88;11.30;;;;;;;5.25;100.00;102895.59;5032583;28;20029;-69
2023/04/18 05:55:05;;;;;;;18.48;12.35;;;;;;;5.32;100.00;102898.91;5032350;28;20116;-70
2023/04/18 05:57:31;;;;;;;16.52;10.55;;;;;;;5.36;100.00;102901.38;5032422;28;20111;-68
2023/04/18 05:59:56;;;;;;;15.68;10.98;;;;;;;5.41;100.00;102903.84;5032025;28;20041;-69
2023/04/18 06:02:21;;;;;;;14.80;10.23;;;;;;;5.45;100.00;102905.47;5031713;28;20033;-68
2023/04/18 06:04:47;;;;;;;15.73;11.00;;;;;;;5.50;100.00;102907.94;5032131;28;20444;-69
2023/04/18 06:07:13;;;;;;;21.70;11.52;;;;;;;5.54;100.00;102907.78;5034288;28;20041;-69
2023/04/18 06:09:38;;;;;;;15.85;10.73;;;;;;;5.58;100.00;102904.13;5035371;28;20042;-68
2023/04/18 06:12:04;;;;;;;14.23;10.35;;;;;;;5.68;100.00;102906.41;5035061;28;20498;-69
2023/04/18 06:14:29;;;;;;;14.98;10.10;;;;;;;5.81;100.00;102912.97;5035857;28;20036;-68
2023/04/18 06:16:55;;;;;;;13.88;10.05;;;;;;;5.93;100.00;102909.00;5035313;28;20071;-68
2023/04/18 06:19:20;;;;;;;19.38;11.23;;;;;;;6.02;100.00;102903.41;5035146;28;20471;-68
2023/04/18 06:21:47;;;;;;;20.92;10.88;;;;;;;6.06;100.00;102907.66;5033986;28;20187;-68
2023/04/18 06:24:12;;;;;;;15.82;10.63;;;;;;;6.03;100.00;102915.69;5034669;28;20029;-68
2023/04/18 06:26:38;;;;;;;14.05;10.30;;;;;;;5.97;100.00;102908.84;5034902;28;20521;-69
2023/04/18 06:29:03;;;;;;;19.45;10.75;;;;;;;5.90;100.00;102917.03;5035739;28;20418;-69
2023/04/18 06:31:29;;;;;;;14.35;10.07;;;;;;;5.83;100.00;102916.41;5034330;28;20037;-69
2023/04/18 06:33:54;;;;;;;15.27;10.70;;;;;;;5.78;100.00;102926.28;5035360;28;20038;-69
2023/04/18 06:36:20;;;;;;;15.50;9.80;;;;;;;5.75;100.00;102921.13;5034911;28;20126;-69
2023/04/18 06:38:45;;;;;;;14.65;10.15;;;;;;;5.71;100.00;102916.88;5035318;28;20075;-70
2023/04/18 06:41:13;;;;;;;18.75;10.35;;;;;;;5.71;100.00;102924.78;5034485;28;20049;-68
2023/04/18 06:43:38;;;;;;;18.55;9.98;;;;;;;5.71;100.00;102930.06;5035306;28;20029;-68
2023/04/18 06:46:04;;;;;;;16.08;10.35;;;;;;;5.70;100.00;102923.91;5034916;28;20041;-67
2023/04/18 06:48:30;;;;;;;16.35;10.15;;;;;;;5.74;100.00;102927.31;5034731;28;20033;-69
2023/04/18 06:50:55;;;;;;;16.90;10.63;;;;;;;5.80;100.00;102927.94;5033978;28;20056;-69
2023/04/18 06:53:21;;;;;;;19.17;10.27;;;;;;;5.86;100.00;102929.50;5035109;28;20034;-69
2023/04/18 06:55:46;;;;;;;17.40;10.07;;;;;;;5.92;100.00;102916.03;5034683;28;20079;-70
2023/04/18 06:58:14;;;;;;;15.93;9.98;;;;;;;6.06;100.00;102917.34;5034951;28;20111;-69
2023/04/18 07:00:40;;;;;;;19.75;10.55;;;;;;;6.22;100.00;102915.81;5035241;28;20037;-69
2023/04/18 07:03:08;;;;;;;14.57;10.32;;;;;;;6.35;100.00;102929.44;5035062;28;20083;-69
2023/04/18 07:05:37;;;;;;;15.50;10.02;;;;;;;6.46;100.00;102923.72;5035038;28;20033;-69
2023/04/18 07:08:02;;;;;;;15.77;10.43;;;;;;;6.68;100.00;102918.41;5034537;28;20029;-70
2023/04/18 07:10:28;;;;;;;14.23;10.30;;;;;;;6.93;100.00;102922.72;5034954;28;20079;-69
2023/04/18 07:12:53;;;;;;;15.57;9.70;;;;;;;7.14;100.00;102926.22;5034760;28;20021;-71
2023/04/18 07:15:19;;;;;;;14.70;9.88;;;;;;;7.22;100.00;102934.69;5035288;28;20352;-69
2023/04/18 07:17:44;;;;;;;14.38;9.70;;;;;;;7.33;100.00;102932.44;5034332;28;20109;-69
2023/04/18 07:20:10;;;;;;;12.95;9.38;;;;;;;7.30;100.00;102932.59;5035038;28;20068;-69
2023/04/18 07:22:36;;;;;;;13.70;10.40;;;;;;;7.33;100.00;102931.56;5033788;28;20116;-69
2023/04/18 07:25:01;;;;;;;13.80;9.57;;;;;;;7.30;100.00;102935.25;5034479;28;20033;-70
2023/04/18 07:27:27;;;;;;;19.92;10.65;;;;;;;7.23;100.00;102939.06;5034431;28;20049;-70
2023/04/18 07:29:52;;;;;;;13.88;9.63;;;;;;;7.14;100.00;102945.63;5034444;28;20046;-70
2023/04/18 07:32:17;;;;;;;15.25;9.88;;;;;;;7.04;100.00;102931.88;5033367;28;20132;-70
2023/04/18 07:34:43;;;;;;;16.98;10.13;;;;;;;7.07;100.00;102939.69;5034328;28;20033;-69
2023/04/18 07:37:09;;;;;;;15.38;9.98;;;;;;;7.07;100.00;102926.47;5034207;28;20037;-68
2023/04/18 07:39:35;;;;;;;15.63;10.25;;;;;;;7.17;100.00;102934.03;5034239;28;20037;-68
2023/04/18 07:42:01;;;;;;;18.85;10.07;;;;;;;7.22;100.00;102929.41;5032862;28;20061;-69
2023/04/18 07:44:26;;;;;;;12.73;9.75;;;;;;;7.18;100.00;102935.75;5034138;28;20034;-68
2023/04/18 07:46:52;;;;;;;12.57;9.68;;;;;;;7.20;100.00;102937.41;5032658;28;20092;-67
2023/04/18 07:49:17;;;;;;;15.40;10.48;;;;;;;7.31;100.00;102934.28;5033942;28;20032;-68
2023/04/18 07:51:43;;;;;;;14.48;9.75;;;;;;;7.47;100.00;102937.13;5034273;28;20045;-67
2023/04/18 07:54:09;;;;;;;12.35;9.27;;;;;;;7.72;100.00;102928.97;5033865;28;20033;-68
2023/04/18 07:56:35;;;;;;;12.02;9.40;;;;;;;8.12;100.00;102936.84;5033798;28;20041;-68
2023/04/18 07:59:01;;;;;;;13.63;9.57;;;;;;;8.57;100.00;102930.34;5034052;28;20039;-68
2023/04/18 08:01:26;;;;;;;13.50;9.13;;;;;;;9.01;100.00;102931.69;5033599;28;20364;-68
2023/04/18 08:03:53;;;;;;;14.15;8.38;;;;;;;9.25;100.00;102923.41;5033760;28;20033;-68
2023/04/18 08:06:20;;;;;;;12.88;8.27;;;;;;;9.32;100.00;102925.69;5033691;28;20040;-68
2023/04/18 08:08:46;;;;;;;14.15;8.52;;;;;;;9.31;100.00;102925.75;5033565;28;20041;-68
2023/04/18 08:11:11;;;;;;;11.60;8.00;;;;;;;9.23;100.00;102928.81;5033628;28;20116;-68
2023/04/18 08:13:36;;;;;;;12.13;7.85;;;;;;;9.10;100.00;102927.72;5033345;28;20108;-68
2023/04/18 08:16:02;;;;;;;9.98;7.90;;;;;;;9.18;100.00;102926.41;5033510;28;20148;-69
2023/04/18 08:18:27;;;;;;;15.30;8.55;;;;;;;9.33;100.00;102923.88;5032292;28;20029;-68
2023/04/18 08:20:53;;;;;;;10.77;7.75;;;;;;;9.40;100.00;102921.75;5033216;28;20033;-68
2023/04/18 08:23:18;;;;;;;11.73;7.68;;;;;;;9.46;100.00;102910.81;5033671;28;20033;-68
2023/04/18 08:25:44;;;;;;;10.82;7.72;;;;;;;9.56;100.00;102916.50;5032764;28;20034;-68
2023/04/18 08:28:09;;;;;;;10.80;7.68;;;;;;;9.53;100.00;102921.03;5032228;28;20108;-68
2023/04/18 08:30:35;;;;;;;10.00;7.18;;;;;;;9.61;100.00;102917.09;5033256;28;20037;-68
2023/04/18 08:33:00;;;;;;;12.30;8.05;;;;;;;9.62;100.00;102922.34;5033025;28;20463;-68
2023/04/18 08:35:26;;;;;;;11.25;7.32;;;;;;;9.43;100.00;102925.09;5033120;28;20029;-68
2023/04/18 08:37:51;;;;;;;10.07;7.43;;;;;;;9.42;100.00;102923.41;5032970;28;20039;-68
2023/04/18 08:40:17;;;;;;;12.98;7.47;;;;;;;9.50;100.00;102921.19;5032914;28;20057;-68
2023/04/18 08:42:46;;;;;;;10.07;7.03;;;;;;;9.68;100.00;102919.34;5033698;28;20463;-68
2023/04/18 08:45:13;;;;;;;9.82;7.28;;;;;;;9.81;100.00;102916.06;5033524;28;20056;-69
2023/04/18 08:47:39;;;;;;;9.20;6.53;;;;;;;9.88;100.00;102915.63;5033115;28;20033;-68
2023/04/18 08:50:06;;;;;;;10.93;6.80;;;;;;;10.06;100.00;102915.53;5033177;28;20037;-69
2023/04/18 08:52:34;;;;;;;10.10;7.22;;;;;;;10.29;100.00;102919.59;5033039;28;20048;-69
2023/04/18 08:55:01;;;;;;;13.27;7.20;;;;;;;10.38;100.00;102916.44;5033199;28;20108;-68
2023/04/18 08:57:28;;;;;;;9.55;7.05;;;;;;;10.68;100.00;102917.44;5033107;28;20412;-68
2023/04/18 08:59:54;;;;;;;12.10;7.57;;;;;;;11.28;100.00;102912.06;5032806;28;20029;-68
2023/04/18 09:02:23;;;;;;;9.55;7.80;;;;;;;12.12;100.00;102907.78;5032990;28;20132;-68
2023/04/18 09:04:51;;;;;;;9.00;6.90;;;;;;;12.17;100.00;102907.50;5032946;28;20033;-68
2023/04/18 09:07:19;;;;;;;10.38;7.32;;;;;;;12.39;100.00;102906.97;5032881;28;20052;-68
2023/04/18 09:09:48;;;;;;;10.80;6.90;;;;;;;12.37;100.00;102908.00;5031457;28;20041;-69
2023/04/18 09:12:21;;;;;;;9.48;7.00;;;;;;;12.27;100.00;102911.28;5032754;28;20057;-68
2023/04/18 09:14:49;;;;;;;12.40;7.15;;;;;;;12.56;100.00;102913.00;5032623;28;20033;-68
2023/04/18 09:17:30;;;;;;;9.93;7.43;;;;;;;12.43;100.00;102918.28;5032939;28;20132;-69
2023/04/18 09:19:56;;;;;;;;;;;;;;;11.96;100.00;102909.72;5034032;28;20513;-68
2023/04/18 09:22:22;;;;;;;10.55;7.75;;;;;;;12.03;100.00;102916.38;5032450;28;19984;-68
2023/04/18 09:24:54;;;;;;;9.13;7.10;;;;;;;12.12;100.00;102902.44;5032729;28;20458;-68
2023/04/18 09:27:23;;;;;;;11.02;6.80;;;;;;;12.06;100.00;102909.97;5032713;28;20036;-68
2023/04/18 09:29:51;;;;;;;10.55;6.90;;;;;;;11.65;100.00;102914.28;5032661;28;20029;-68
2023/04/18 09:32:23;;;;;;;9.88;7.20;;;;;;;12.19;100.00;102916.25;5032992;28;20037;-68
2023/04/18 09:34:56;;;;;;;9.68;6.85;;;;;;;12.87;100.00;102906.47;5032631;28;20079;-68
2023/04/18 09:37:22;;;;;;;10.13;6.65;;;;;;;13.29;92.01;102900.94;5032809;28;20029;-69
2023/04/18 09:39:49;;;;;;;15.65;7.20;;;;;;;13.85;85.98;102900.59;5032625;28;20083;-68
2023/04/18 09:42:15;;;;;;;12.13;7.50;;;;;;;15.37;78.86;102895.53;5035924;28;20057;-68
2023/04/18 09:45:07;;;;;;;9.77;7.20;;;;;;;16.72;61.93;102899.81;5036540;28;20025;-67
2023/04/18 09:47:34;;;;;;;9.63;7.20;;;;;;;15.89;63.15;102893.25;5034122;28;20132;-67
2023/04/18 09:50:03;;;;;;;10.57;7.25;;;;;;;15.21;67.18;102901.22;5035711;28;20362;-68
2023/04/18 09:52:34;;;;;;;10.98;6.97;;;;;;;13.93;71.10;102896.41;5036269;28;20390;-69
2023/04/18 09:55:01;;;;;;;;;;;;;;;13.64;83.50;102898.47;5036751;28;20122;-69
2023/04/18 09:57:28;;;;;;;7.82;5.80;;;;;;;13.48;83.67;102897.84;5036071;28;20363;-68
2023/04/18 10:00:02;;;;;;;8.27;6.32;;;;;;;13.33;91.92;102894.41;5036571;28;20033;-68
2023/04/18 10:02:38;;;;;;;10.38;6.78;;;;;;;13.39;89.18;102891.34;5035878;28;20483;-69
2023/04/18 10:05:06;;;;;;;10.85;7.38;;;;;;;13.93;83.73;102888.38;5036396;28;20029;-68
2023/04/18 10:07:32;;;;;;;9.85;7.15;;;;;;;14.94;73.00;102886.31;5036020;28;20034;-69
2023/04/18 10:09:57;;;;;;;10.68;7.05;;;;;;;15.04;71.69;102891.81;5036054;28;20096;-68
2023/04/18 10:12:23;;;;;;;11.73;6.20;;;;;;;14.81;75.52;102883.72;5035972;28;20033;-68
2023/04/18 10:14:49;;;;;;;10.93;6.75;;;;;;;14.96;74.47;102882.53;5036074;28;20034;-68
2023/04/18 10:17:15;;;;;;;18.38;6.82;;;;;;;15.81;66.59;102891.19;5035592;28;20103;-70
2023/04/18 10:19:43;;;;;;;8.43;6.07;;;;;;;15.18;66.94;102882.69;5035901;28;20067;-69
2023/04/18 10:22:10;;;;;;;9.05;6.95;;;;;;;14.46;71.32;102881.84;5035803;28;20430;-69
2023/04/18 10:24:48;;;;;;;7.43;6.10;;;;;;;15.12;72.97;102890.25;5035807;28;20463;-69
2023/04/18 10:27:16;;;;;;;11.38;5.97;;;;;;;17.04;60.59;102878.28;5035950;28;20040;-67
2023/04/18 10:29:49;;;;;;;7.18;5.32;;;;;;;18.03;52.62;102872.31;5036181;28;20045;-68
2023/04/18 10:32:17;;;;;;;6.93;5.30;;;;;;;17.48;54.01;102874.53;5035633;28;20030;-69
2023/04/18 10:34:45;;;;;;;6.22;5.30;;;;;;;16.90;56.29;102875.94;5035955;28;20111;-68
2023/04/18 10:37:11;;;;;;;10.02;6.15;;;;;;;16.36;58.91;102877.72;5035380;28;20167;-69
2023/04/18 10:40:06;;;;;;;7.65;5.45;;;;;;;17.44;54.25;102873.97;5035428;28;20124;-69
2023/04/18 10:42:47;;;;;;;8.25;6.40;;;;;;;17.42;55.00;102876.78;5026102;28;20054;-69
2023/04/18 10:45:19;;;;;;;6.67;5.40;;;;;;;16.27;56.91;102867.75;5035524;28;20048;-68
2023/04/18 10:47:44;;;;;;;8.48;5.00;;;;;;;15.44;59.24;102873.47;5035159;28;20026;-70
2023/04/18 10:50:10;;;;;;;6.70;4.72;;;;;;;14.14;62.46;102873.53;5035387;28;20415;-70
2023/04/18 10:52:36;;;;;;;6.72;5.40;;;;;;;14.03;69.55;102869.84;5033829;28;20025;-70
2023/04/18 10:55:05;;;;;;;16.00;5.95;;;;;;;13.60;74.66;102856.88;5034909;28;20034;-70
2023/04/18 10:57:57;;;;;;;7.20;5.85;;;;;;;13.22;86.65;102866.59;5035152;28;20034;-70
2023/04/18 11:00:23;;;;;;;7.90;5.40;;;;;;;13.10;91.89;102874.63;5032898;28;20080;-71
2023/04/18 11:02:51;;;;;;;9.95;7.25;;;;;;;12.78;92.22;102875.00;5034934;28;20117;-69
2023/04/18 11:05:21;;;;;;;8.43;6.88;;;;;;;12.64;96.66;102879.47;5035069;28;20025;-70
2023/04/18 11:07:47;;;;;;;13.18;7.90;;;;;;;12.22;99.84;102862.66;5034059;28;20099;-70
2023/04/18 11:10:18;;;;;;;11.70;8.00;;;;;;;11.83;100.00;102872.25;5034698;28;20459;-70